• Join FlightAware (Why Join?)
  • Login
  • US Flag 
Rudolph Flight #1: Scheduled 
09:39PM EST


 

Airport Tracker/Info


-or-


 

Live Flight TrackerFlight Track Log ✈ EJA930 ✈ 03-Jul-2013 ✈ KTEB - KAPF

Flight Track Log - Related Links

Times and Time Zones

All times are in EDT time to prevent confusion due to time zone crossing. See the EJA930 flight status page for this flight to view local times or setup timezone preferences in your user account.

Time Position Orientation Groundspeed Altitude Reporting Facility
EDT Latitude Longitude Course Direction KTS MPH feet Rate Location/Type
05:20PM 40.8167 -74.1833 255° West 217 250 1,800  Level New York TRACON
05:21PM 40.7833 -74.2500 237° Southwest 212 244 3,600 1,800 Climbing New York TRACON
05:22PM 40.7167 -74.2667 191° South 258 297 5,400 1,200 Climbing New York TRACON
05:23PM 40.6500 -74.2667 180° South 265 305 6,100 300 Climbing New York TRACON
05:24PM 40.5833 -74.2667 180° South 266 306 6,100  Level New York TRACON
05:25PM 40.5000 -74.2500 171° South 263 303 6,100  Level New York TRACON
05:26PM 40.4333 -74.2167 159° South 278 320 6,100 -60 Level New York TRACON
05:27PM 40.3833 -74.1667 143° Southeast 285 328 6,000 240 Descending New York TRACON
05:28PM 40.3667 -74.0667 102° East 300 345 6,600 1,500 Climbing New York TRACON
05:29PM 40.3167 -74.0000 135° Southeast 278 320 9,000 1,140 Climbing New York TRACON
05:30PM 40.2247 -74.0331 195° South 284 327 9,100 480 Climbing New York Center
05:31PM 40.1978 -74.1025 243° Southwest 256 295 10,100 1,620 Climbing New York Center
05:32PM 40.1764 -74.1992 254° West 269 310 12,400 2,400 Climbing New York Center
05:33PM 40.1583 -74.3125 258° West 294 338 15,000 1,260 Climbing New York Center
05:34PM 40.0842 -74.3575 205° Southwest 284 327 15,000 840 Level New York Center
05:36PM 39.8825 -74.3992 189° South 327 376 17,500 1,140 Climbing Washington Center
05:37PM 39.7894 -74.4656 209° Southwest 360 414 18,500 1,020 Climbing Washington Center
05:38PM 39.7175 -74.5639 226° Southwest 371 427 19,600 1,560 Climbing Washington Center
05:39PM 39.6453 -74.6592 225° Southwest 377 434 21,700 1,260 Climbing Washington Center
05:40PM 39.5711 -74.7597 226° Southwest 377 434 22,200 780 Climbing Washington Center
05:41PM 39.4906 -74.8628 225° Southwest 388 447 23,300 1,140 Climbing Washington Center
05:42PM 39.4119 -74.9658 225° Southwest 399 459 24,500 1,380 Climbing Washington Center
05:43PM 39.3436 -75.0575 226° Southwest 399 459 26,200 1,500 Climbing Washington Center
05:44PM 39.2542 -75.1386 215° Southwest 399 459 27,600 1,260 Climbing Washington Center
05:45PM 39.1522 -75.1819 198° South 394 453 28,800 1,320 Climbing Washington Center
05:46PM 39.0608 -75.2708 217° Southwest 399 459 30,300 1,440 Climbing Washington Center
05:47PM 38.9797 -75.3753 225° Southwest 404 465 31,800 1,440 Climbing Washington Center
05:48PM 38.8922 -75.4717 221° Southwest 409 471 33,300 1,320 Climbing Washington Center
05:49PM 38.7839 -75.5331 204° Southwest 416 479 34,500 1,260 Climbing Washington Center
05:50PM 38.6714 -75.5944 203° Southwest 428 493 35,800 1,500 Climbing Washington Center
05:51PM 38.5631 -75.6528 203° Southwest 434 499 37,600 1,680 Climbing Washington Center
05:52PM 38.4525 -75.7136 203° Southwest 434 499 39,300 1,200 Climbing Washington Center
05:53PM 38.3439 -75.7744 204° Southwest 434 499 40,000 300 Climbing Washington Center
05:54PM 38.2272 -75.8375 203° Southwest 445 512 40,000  Level Washington Center
05:55PM 38.1061 -75.9031 203° Southwest 457 526 40,000  Level Washington Center
05:56PM 37.9850 -75.9711 204° Southwest 467 537 40,000  Level Washington Center
05:57PM 37.8636 -76.0389 204° Southwest 474 545 40,000  Level Washington Center
05:58PM 37.7300 -76.1194 205° Southwest 482 555 40,000  Level Washington Center
05:59PM 37.6128 -76.1658 197° South 482 555 40,000  Level Washington Center
06:00PM 37.4731 -76.1833 186° South 491 565 40,000  Level Washington Center
06:01PM 37.3394 -76.2031 187° South 491 565 40,000  Level Washington Center
06:02PM 37.2036 -76.2308 189° South 491 565 40,000  Level Washington Center
06:03PM 37.0700 -76.2661 192° South 491 565 40,000  Level Washington Center
06:04PM 36.9383 -76.3014 192° South 486 559 40,000  Level Washington Center
06:05PM 36.8047 -76.3417 194° South 486 559 40,000  Level Washington Center
06:06PM 36.6686 -76.4103 202° Southwest 486 559 40,000  Level Washington Center
06:07PM 36.5408 -76.4658 199° South 491 565 40,000  Level Washington Center
06:08PM 36.4236 -76.5161 199° South 497 572 40,000  Level Washington Center
06:09PM 36.2961 -76.5739 200° South 497 572 40,000  Level Washington Center
06:10PM 36.1642 -76.6289 199° South 497 572 40,000  Level Washington Center
06:11PM 36.0364 -76.6836 199° South 497 572 40,000  Level Washington Center
06:12PM 35.9086 -76.7433 201° Southwest 492 566 40,000  Level Washington Center
06:13PM 35.7786 -76.7981 199° South 492 566 40,000  Level Washington Center
06:14PM 35.6486 -76.8522 199° South 492 566 40,000  Level Washington Center
06:15PM 35.5208 -76.9114 201° Southwest 492 566 40,000  Level Washington Center
06:16PM 35.3886 -76.9678 199° South 499 574 40,000  Level Washington Center
06:17PM 35.2564 -77.0267 200° South 509 586 40,000  Level Washington Center
06:18PM 35.1222 -77.0828 199° South 509 586 40,000  Level Washington Center
06:19PM 34.9922 -77.1411 200° South 509 586 40,000  Level Washington Center
06:20PM 34.8600 -77.1969 199° South 509 586 40,000  Level Washington Center
06:21PM 34.7111 -77.2597 199° South 509 586 40,000  Level Washington Center
06:22PM 34.5808 -77.3175 200° South 509 586 40,000  Level Washington Center
06:23PM 34.4486 -77.3725 199° South 509 586 40,000  Level Washington Center
06:25PM 34.1364 -77.5014 199° South 513 590 40,000  Level Jacksonville Center
06:26PM 34.0011 -77.5597 200° South 518 596 40,000  Level Jacksonville Center
06:27PM 33.8658 -77.6131 198° South 513 590 40,000  Level Jacksonville Center
06:28PM 33.7306 -77.6711 200° South 513 590 40,000  Level Jacksonville Center
06:29PM 33.5786 -77.7325 199° South 518 596 40,000  Level Jacksonville Center
06:30PM 33.4575 -77.7842 200° South 518 596 40,000  Level Jacksonville Center
06:31PM 33.3200 -77.8394 199° South 518 596 40,000  Level Jacksonville Center
06:32PM 33.1803 -77.8969 199° South 518 596 40,000  Level Jacksonville Center
06:33PM 33.0408 -77.9542 199° South 518 596 40,000  Level Jacksonville Center
06:34PM 32.9011 -78.0114 199° South 524 603 40,000  Level Jacksonville Center
06:35PM 32.7592 -78.0683 199° South 529 609 40,000  Level Jacksonville Center
06:36PM 32.6175 -78.1253 199° South 535 616 40,000  Level Jacksonville Center
06:37PM 32.4778 -78.1844 200° South 535 616 40,000  Level Jacksonville Center
06:38PM 32.3336 -78.2411 198° South 540 621 40,000  Level Jacksonville Center
06:39PM 32.1917 -78.2997 199° South 540 621 40,000  Level Jacksonville Center
06:40PM 32.0500 -78.3583 199° South 540 621 40,000  Level Jacksonville Center
06:41PM 31.9058 -78.4167 199° South 540 621 40,000  Level Jacksonville Center
06:42PM 31.7617 -78.4750 199° South 540 621 40,000  Level Jacksonville Center
06:43PM 31.6258 -78.5278 198° South 540 621 40,000  Level Jacksonville Center
06:44PM 31.4836 -78.5808 198° South 540 621 40,000  Level Jacksonville Center
06:45PM 31.3356 -78.6436 200° South 546 628 40,000  Level Jacksonville Center
06:46PM 31.1933 -78.7011 199° South 546 628 40,000  Level Jacksonville Center
06:47PM 31.0511 -78.7533 197° South 546 628 40,000  Level Jacksonville Center
06:48PM 30.9047 -78.8108 199° South 551 634 40,000  Level Jacksonville Center
06:49PM 30.7622 -78.8653 198° South 551 634 40,000  Level Jacksonville Center
06:50PM 30.6197 -78.9206 198° South 560 644 40,000  Level Miami Center
06:51PM 30.4753 -78.9756 198° South 544 626 40,000  Level Miami Center
06:52PM 30.3306 -79.0353 200° South 544 626 40,000  Level Miami Center
06:53PM 30.1961 -79.0997 203° Southwest 543 625 40,000  Level Miami Center
06:54PM 30.0675 -79.1856 210° Southwest 535 616 40,000  Level Miami Center
06:55PM 29.9408 -79.2811 213° Southwest 540 621 40,000  Level Miami Center
06:56PM 29.8225 -79.3692 213° Southwest 535 616 40,000  Level Miami Center
06:57PM 29.6958 -79.4619 212° Southwest 530 610 40,000 -300 Level Miami Center
06:58PM 29.5753 -79.5544 214° Southwest 530 610 39,500 -900 Descending Miami Center
06:59PM 29.4442 -79.6392 209° Southwest 535 616 38,200 -1,320 Descending Miami Center
07:00PM 29.3172 -79.7314 212° Southwest 540 621 36,900 -1,140 Descending Miami Center
07:01PM 29.1922 -79.8206 212° Southwest 540 621 36,000 -720 Descending Miami Center
07:02PM 29.0675 -79.9075 211° Southwest 540 621 35,500 -900 Descending Miami Center
07:03PM 28.9403 -79.9967 212° Southwest 540 621 34,200 -1,620 Descending Miami Center
07:04PM 28.8075 -80.0639 204° Southwest 535 616 32,300 -1,140 Descending Miami Center
07:05PM 28.6636 -80.0597 179° South 495 570 32,000 -180 Descending Miami Center
07:06PM 28.5425 -79.9689 147° Southeast 502 578 32,000 -540 Level Miami Center
07:07PM 28.4253 -79.8828 147° Southeast 544 626 31,000 -1,440 Descending Miami Center
07:08PM 28.2958 -79.7875 147° Southeast 557 641 29,200 -1,680 Descending Miami Center
07:09PM 28.1683 -79.6969 148° Southeast 557 641 27,700 -1,440 Descending Miami Center
07:10PM 28.0344 -79.5994 147° Southeast 538 619 26,400 -1,380 Descending Miami Center
07:11PM 27.9192 -79.5169 148° Southeast 522 601 25,000 -1,380 Descending Miami Center
07:12PM 27.7967 -79.4694 161° South 456 525 23,700 -1,320 Descending Miami Center
07:13PM 27.6772 -79.5042 194° South 451 519 22,400 -1,440 Descending Miami Center
07:14PM 27.5406 -79.5456 195° South 462 532 20,900 -1,200 Descending Miami Center
07:15PM 27.4492 -79.6394 222° Southwest 448 516 20,000 -480 Descending Miami Center
07:16PM 27.4172 -79.7744 255° West 429 494 20,000  Level Miami Center
07:17PM 27.4017 -79.9189 263° West 442 509 20,000  Level Miami Center
07:18PM 27.3903 -80.0614 265° West 459 528 20,000 -300 Level Miami Center
07:19PM 27.3725 -80.2036 262° West 464 534 19,400 -1,080 Descending Miami Center
07:20PM 27.3461 -80.3431 258° West 464 534 17,900 -1,680 Descending Miami Center
07:21PM 27.2992 -80.4725 248° West 453 521 16,100 -900 Descending Miami Center
07:22PM 27.2525 -80.5808 244° Southwest 436 502 16,100  Level Miami Center
07:23PM 27.2014 -80.7006 244° Southwest 436 502 16,100 -300 Level Miami Center
07:24PM 27.1414 -80.8339 243° Southwest 436 502 15,600 -1,200 Descending Miami Center
07:25PM 27.0964 -80.9536 247° West 436 502 13,800 -1,800 Descending Miami Center
07:26PM 27.0594 -81.0714 251° West 420 483 12,100 -1,800 Descending Miami Center
07:27PM 27.0000 -81.1811 239° Southwest 420 483 10,200 -1,080 Descending Miami Center
07:28PM 26.9511 -81.2794 241° Southwest 385 443 10,000 -120 Descending Miami Center
07:29PM 26.8708 -81.3136 201° Southwest 338 389 10,000  Level Miami Center
07:30PM 26.7817 -81.3592 205° Southwest 343 395 10,000 -480 Level Miami Center
07:31PM 26.6944 -81.4069 206° Southwest 350 403 9,100 -1,500 Descending Miami Center
07:32PM 26.6222 -81.4481 207° Southwest 311 358 7,000 -2,340 Descending Miami Center
07:33PM 26.5564 -81.4828 205° Southwest 283 326 4,500 -2,100 Descending Miami Center
07:34PM 26.4947 -81.5175 207° Southwest 261 300 2,900 -780 Descending Miami Center
07:35PM 26.4353 -81.5500 206° Southwest 249 287 3,000 60 Climbing Miami Center
07:37PM 26.2547 -81.5692 250° West  Level FlightAware Approximate
07:44PM 26.1500 -81.7667 246° West  Level FlightAware Approximate
07:45PM 26.1524 -81.7756 246° West  Level Estimated
07:46PM 26.1524 -81.7756 246° West  Level Estimated
07:47PM 26.1524 -81.7756 246° West  Level Estimated
07:48PM 26.1524 -81.7756 246° West  Level Estimated
07:49PM 26.1524 -81.7756 246° West  Level Estimated
07:50PM 26.1524 -81.7756 246° West  Level Estimated
07:51PM 26.1524 -81.7756 246° West  Level Estimated